• Join FlightAware (Why Join?)
  • Login
  • US Flag 
05:04AM EDT


 

Airport Tracker/Info


-or-


 

Live Flight TrackerFlight Track Log ✈ N4446X ✈ 15-May-2013 ✈ KASX - 08C

Flight Track Log - Related Links

Times and Time Zones

All times are in EDT time to prevent confusion due to time zone crossing. See the N4446X flight status page for this flight to view local times or setup timezone preferences in your user account.

Time Position Orientation Groundspeed Altitude Reporting Facility
EDT Latitude Longitude Course Direction KTS MPH feet Rate Location/Type
01:12PM 46.4778 -90.8006 133° Southeast 140 161 5,200  Level Minneapolis Center
01:13PM 46.4503 -90.7550 131° Southeast 147 169 5,900 720 Climbing Minneapolis Center
01:14PM 46.4203 -90.7064 132° Southeast 154 177 6,800 720 Climbing Minneapolis Center
01:15PM 46.3992 -90.6694 130° Southeast 154 177 7,500 540 Climbing Minneapolis Center
01:16PM 46.3675 -90.6247 136° Southeast 155 178 8,000 720 Climbing Minneapolis Center
01:17PM 46.3247 -90.5724 133° Southeast  Level Estimated
01:17PM 46.3294 -90.5667 133° Southeast 161 185 9,000  Level Minneapolis Center
01:18PM 46.2889 -90.5006 132° Southeast 172 198 9,100 -60 Climbing Minneapolis Center
01:19PM 46.2469 -90.4411 136° Southeast 192 221 8,900 -60 Descending Minneapolis Center
01:20PM 46.2081 -90.3792 132° Southeast 202 232 9,000  Climbing Minneapolis Center
01:21PM 46.1692 -90.3211 134° Southeast 204 235 9,000  Level Minneapolis Center
01:22PM 46.1311 -90.2606 132° Southeast 204 235 9,000  Level Minneapolis Center
01:23PM 46.0922 -90.2033 134° Southeast 203 234 9,000  Level Minneapolis Center
01:24PM 46.0461 -90.1303 132° Southeast 204 235 9,000  Level Minneapolis Center
01:25PM 46.0069 -90.0714 134° Southeast 204 235 9,000  Level Minneapolis Center
01:26PM 45.9672 -90.0122 134° Southeast 205 236 9,000  Level Minneapolis Center
01:27PM 45.9283 -89.9522 133° Southeast 206 237 9,000  Level Minneapolis Center
01:28PM 45.8883 -89.8928 134° Southeast 207 238 9,000  Level Minneapolis Center
01:29PM 45.8403 -89.8219 134° Southeast 207 238 9,000  Level Minneapolis Center
01:30PM 45.7939 -89.7514 133° Southeast 206 237 9,000  Level Minneapolis Center
01:31PM 45.7542 -89.6933 134° Southeast 205 236 9,000 -60 Level Minneapolis Center
01:33PM 45.7158 -89.6342 133° Southeast 205 236 8,900  Descending Minneapolis Center
01:34PM 45.6761 -89.5764 135° Southeast 204 235 9,000  Climbing Minneapolis Center
01:35PM 45.6361 -89.5175 134° Southeast 206 237 9,000  Level Minneapolis Center
01:36PM 45.5892 -89.4464 133° Southeast 206 237 9,000  Level Minneapolis Center
01:37PM 45.5483 -89.3883 135° Southeast 207 238 9,000  Level Minneapolis Center
01:38PM 45.5086 -89.3303 134° Southeast 206 237 9,000  Level Minneapolis Center
01:39PM 45.4678 -89.2717 135° Southeast 207 238 9,000 -60 Level Minneapolis Center
01:40PM 45.4286 -89.2131 134° Southeast 206 237 8,900  Descending Minneapolis Center
01:41PM 45.3886 -89.1550 134° Southeast 206 237 9,000  Climbing Minneapolis Center
01:42PM 45.3400 -89.0847 135° Southeast 207 238 9,000  Level Minneapolis Center
01:43PM 45.3000 -89.0253 134° Southeast 208 239 9,000 -60 Level Minneapolis Center
01:44PM 45.2603 -88.9658 134° Southeast 209 241 8,900 -60 Descending Minneapolis Center
01:45PM 45.2269 -88.9211 137° Southeast 209 241 8,900  Level Minneapolis Center
01:46PM 45.1803 -88.8531 134° Southeast 203 234 9,000  Climbing Minneapolis Center
01:47PM 45.1397 -88.7942 134° Southeast 208 239 8,900 -60 Descending Minneapolis Center
01:48PM 45.0986 -88.7375 136° Southeast 208 239 8,900  Level Minneapolis Center
01:49PM 45.0522 -88.6678 133° Southeast 203 234 8,900  Level Minneapolis Center
01:50PM 45.0150 -88.6128 134° Southeast 205 236 8,900  Level Minneapolis Center
01:51PM 44.9758 -88.5547 134° Southeast 206 237 8,900  Level Minneapolis Center
01:52PM 44.9347 -88.4983 136° Southeast 207 238 8,900  Level Minneapolis Center
01:53PM 44.8878 -88.4333 136° Southeast 204 235 9,000  Climbing Minneapolis Center
01:54PM 44.8469 -88.3767 135° Southeast 206 237 8,900 -60 Descending Minneapolis Center
01:55PM 44.8072 -88.3183 134° Southeast 207 238 8,900  Level Minneapolis Center
01:56PM 44.7658 -88.2608 135° Southeast 205 236 8,900  Level Minneapolis Center
01:57PM 44.7264 -88.2050 135° Southeast 207 238 8,900  Level Minneapolis Center
01:58PM 44.6861 -88.1478 135° Southeast 207 238 8,900  Level Minneapolis Center
01:59PM 44.6389 -88.0819 135° Southeast 205 236 8,900  Level Minneapolis Center
02:00PM 44.5978 -88.0247 135° Southeast 207 238 9,000  Climbing Minneapolis Center
02:01PM 44.5572 -87.9667 134° Southeast 208 239 9,000  Level Minneapolis Center
02:02PM 44.5136 -87.9075 136° Southeast 209 241 9,000  Level Minneapolis Center
02:03PM 44.4717 -87.8514 136° Southeast 209 241 9,000  Level Minneapolis Center
02:04PM 44.4328 -87.7953 134° Southeast 208 239 9,000  Level Minneapolis Center
02:06PM 44.3839 -87.7278 135° Southeast 211 243 9,000  Level Minneapolis Center
02:07PM 44.3433 -87.6711 135° Southeast 208 239 9,000  Level Minneapolis Center
02:08PM 44.2944 -87.6056 136° Southeast 208 239 9,000  Level Minneapolis Center
02:09PM 44.2539 -87.5500 136° Southeast 205 236 9,000  Level Minneapolis Center
02:10PM 44.2133 -87.4953 136° Southeast 203 234 9,000 -60 Level Minneapolis Center
02:11PM 44.1650 -87.4286 135° Southeast 207 238 8,900  Descending Minneapolis Center
02:12PM 44.1239 -87.3722 135° Southeast 209 241 9,000  Climbing Minneapolis Center
02:13PM 44.0822 -87.3164 136° Southeast 207 238 9,000  Level Minneapolis Center
02:14PM 44.0411 -87.2586 135° Southeast 209 241 9,000  Level Minneapolis Center
02:15PM 43.9981 -87.2017 136° Southeast 210 242 9,000  Level Minneapolis Center
02:16PM 43.9569 -87.1450 135° Southeast 210 242 9,000  Level Minneapolis Center
02:17PM 43.9150 -87.0886 136° Southeast 210 242 9,000  Level Minneapolis Center
02:18PM 43.8636 -87.0203 136° Southeast 213 245 9,000  Level Minneapolis Center
02:19PM 43.8214 -86.9633 136° Southeast 213 245 9,000  Level Minneapolis Center
02:20PM 43.7778 -86.9075 137° Southeast 212 244 9,000  Level Minneapolis Center
02:21PM 43.7364 -86.8494 135° Southeast 214 246 9,000  Level Minneapolis Center
02:22PM 43.6931 -86.7922 136° Southeast 215 247 9,000  Level Minneapolis Center
02:23PM 43.6428 -86.7225 135° Southeast 214 246 9,000 -60 Level Minneapolis Center
02:24PM 43.6094 -86.6769 135° Southeast 214 246 8,900 -300 Descending Chicago Center
02:25PM 43.5658 -86.6197 136° Southeast 216 249 8,500 -480 Descending Chicago Center
02:26PM 43.5467 -86.5964 139° Southeast 218 251 8,300 -540 Descending Minneapolis Center
02:27PM 43.5033 -86.5386 136° Southeast 218 251 7,800 -480 Descending Minneapolis Center
02:28PM 43.4675 -86.4939 138° Southeast 218 251 7,400 -540 Descending Minneapolis Center
02:29PM 43.4158 -86.4239 135° Southeast 217 250 6,800 -540 Descending Minneapolis Center
02:30PM 43.3736 -86.3683 136° Southeast 214 246 6,400 -360 Descending Minneapolis Center
02:30PM 43.3403 -86.3269 138° Southeast 208 239 6,200 -480 Descending Chicago Center
02:31PM 43.3003 -86.2742 136° Southeast 203 234 5,600 -660 Descending Chicago Center
02:32PM 43.2581 -86.2233 139° Southeast 202 232 4,900 -600 Descending Chicago Center
02:33PM 43.2194 -86.1700 135° Southeast 200 230 4,400 -540 Descending Chicago Center